TimeCST,TemperatureF,Dew PointF,Humidity,Sea Level PressureIn,VisibilityMPH,Wind Direction,Wind SpeedMPH,Gust SpeedMPH,PrecipitationIn,Events,Conditions,WindDirDegrees,DateUTC
12:55 AM,64.2,62.4,94,30.02,10.0,SE,10.4,-,N/A,,Overcast,140,2013-01-13 06:55:00
1:55 AM,64.0,62.1,93,30.00,10.0,SSE,10.4,-,N/A,,Clear,150,2013-01-13 07:55:00
2:55 AM,64.8,62.2,92,29.99,10.0,SSE,8.1,-,N/A,,Partly Cloudy,160,2013-01-13 08:55:00
3:20 AM,64.4,62.6,94,29.99,10.0,SSE,9.2,-,N/A,,Overcast,160,2013-01-13 09:20:00
3:23 AM,66.2,62.6,88,29.99,10.0,SSE,9.2,-,N/A,,Overcast,160,2013-01-13 09:23:00
3:35 AM,66.2,62.6,88,29.99,10.0,SSE,9.2,-,N/A,,Overcast,160,2013-01-13 09:35:00
3:55 AM,65.8,63.1,91,29.99,10.0,South,8.1,-,N/A,,Overcast,170,2013-01-13 09:55:00
4:06 AM,66.2,62.6,88,29.99,10.0,SSE,6.9,-,N/A,,Scattered Clouds,160,2013-01-13 10:06:00
4:12 AM,64.4,62.6,94,29.99,10.0,South,6.9,-,N/A,,Mostly Cloudy,170,2013-01-13 10:12:00
4:21 AM,64.4,62.6,94,30.00,10.0,South,5.8,-,N/A,,Mostly Cloudy,170,2013-01-13 10:21:00
4:50 AM,66.2,62.6,88,30.01,10.0,South,5.8,-,N/A,,Overcast,180,2013-01-13 10:50:00
4:55 AM,66.0,63.3,91,30.01,10.0,South,5.8,-,N/A,,Overcast,170,2013-01-13 10:55:00
5:55 AM,65.7,63.5,93,30.01,10.0,SE,5.8,-,N/A,,Overcast,140,2013-01-13 11:55:00
6:55 AM,65.7,63.5,93,30.01,10.0,SE,8.1,-,N/A,,Overcast,130,2013-01-13 12:55:00
7:55 AM,67.3,64.2,90,30.05,10.0,SE,5.8,-,N/A,,Overcast,140,2013-01-13 13:55:00
8:07 AM,68.0,64.4,88,30.05,10.0,SE,5.8,-,N/A,,Overcast,140,2013-01-13 14:07:00
8:52 AM,69.8,64.4,83,30.05,10.0,SE,8.1,-,N/A,,Scattered Clouds,130,2013-01-13 14:52:00
8:55 AM,69.3,64.6,85,30.05,10.0,SE,8.1,-,N/A,,Scattered Clouds,130,2013-01-13 14:55:00
9:02 AM,69.8,64.4,83,30.06,10.0,SE,8.1,-,N/A,,Mostly Cloudy,130,2013-01-13 15:02:00
9:07 AM,69.8,64.4,83,30.05,10.0,SE,9.2,-,N/A,,Scattered Clouds,130,2013-01-13 15:07:00
9:19 AM,71.6,64.4,78,30.06,10.0,SE,10.4,-,N/A,,Mostly Cloudy,140,2013-01-13 15:19:00
9:24 AM,71.6,64.4,78,30.06,10.0,SSE,9.2,-,N/A,,Mostly Cloudy,150,2013-01-13 15:24:00
9:26 AM,71.6,64.4,78,30.06,10.0,SSE,9.2,-,N/A,,Mostly Cloudy,150,2013-01-13 15:26:00
9:34 AM,71.6,64.4,78,30.06,10.0,SSE,10.4,-,N/A,,Mostly Cloudy,150,2013-01-13 15:34:00
9:46 AM,71.6,64.4,78,30.06,10.0,SSE,11.5,-,N/A,,Overcast,160,2013-01-13 15:46:00
9:54 AM,71.6,64.4,78,30.06,10.0,SSE,13.8,-,N/A,,Overcast,150,2013-01-13 15:54:00
9:55 AM,71.4,64.0,77,30.06,10.0,SSE,12.7,-,N/A,,Overcast,150,2013-01-13 15:55:00
9:57 AM,71.6,64.4,78,30.06,10.0,SSE,11.5,-,N/A,,Overcast,150,2013-01-13 15:57:00
9:59 AM,71.6,64.4,78,30.06,10.0,SSE,10.4,-,N/A,,Overcast,160,2013-01-13 15:59:00
10:55 AM,72.9,63.7,73,30.04,10.0,South,9.2,-,N/A,,Overcast,170,2013-01-13 16:55:00
11:55 AM,75.2,63.9,68,30.01,10.0,SSE,13.8,-,N/A,,Mostly Cloudy,160,2013-01-13 17:55:00
12:35 PM,75.2,64.4,69,29.99,10.0,South,12.7,-,N/A,,Mostly Cloudy,170,2013-01-13 18:35:00
12:55 PM,76.3,64.4,67,29.99,10.0,South,13.8,-,N/A,,Mostly Cloudy,170,2013-01-13 18:55:00
1:23 PM,75.2,64.4,69,29.99,10.0,South,12.7,-,N/A,Rain,Light Rain,170,2013-01-13 19:23:00
1:35 PM,75.2,64.4,69,29.99,10.0,SSE,10.4,-,N/A,,Mostly Cloudy,150,2013-01-13 19:35:00
1:55 PM,75.0,64.8,70,29.98,10.0,South,9.2,-,0.00,Rain,Light Rain,170,2013-01-13 19:55:00
2:25 PM,73.4,66.2,78,29.98,10.0,SSE,8.1,-,N/A,,Overcast,160,2013-01-13 20:25:00
2:55 PM,75.2,64.6,69,29.97,10.0,SSE,11.5,-,0.00,,Overcast,160,2013-01-13 20:55:00
3:55 PM,75.2,64.9,70,29.97,10.0,SSE,12.7,-,N/A,,Mostly Cloudy,160,2013-01-13 21:55:00
4:55 PM,74.1,64.8,72,29.99,10.0,South,10.4,-,N/A,,Overcast,170,2013-01-13 22:55:00
5:16 PM,73.4,64.4,73,30.00,10.0,South,11.5,-,N/A,Rain,Light Rain,180,2013-01-13 23:16:00
5:32 PM,71.6,66.2,83,30.00,10.0,South,9.2,-,N/A,,Mostly Cloudy,180,2013-01-13 23:32:00
5:55 PM,72.7,65.8,79,30.01,10.0,South,10.4,-,0.00,,Overcast,180,2013-01-13 23:55:00
6:26 PM,71.6,66.2,83,30.01,10.0,South,13.8,-,N/A,Rain,Light Rain,170,2013-01-14 00:26:00
6:34 PM,71.6,66.2,83,30.01,10.0,South,10.4,-,N/A,Rain,Light Rain,180,2013-01-14 00:34:00
6:46 PM,71.6,66.2,83,30.01,10.0,South,10.4,-,N/A,,Overcast,170,2013-01-14 00:46:00
6:48 PM,71.6,66.2,83,30.01,10.0,South,9.2,-,N/A,,Overcast,170,2013-01-14 00:48:00
6:55 PM,71.4,66.4,84,30.01,10.0,SSE,11.5,-,0.00,,Mostly Cloudy,160,2013-01-14 00:55:00
7:06 PM,71.6,66.2,83,30.00,10.0,SSE,13.8,-,N/A,Rain,Light Rain,160,2013-01-14 01:06:00
7:15 PM,71.6,66.2,83,30.00,10.0,SSE,11.5,-,N/A,,Overcast,160,2013-01-14 01:15:00
7:17 PM,71.6,66.2,83,30.01,10.0,South,10.4,-,N/A,Rain,Light Rain,170,2013-01-14 01:17:00
7:30 PM,69.8,66.2,88,30.01,10.0,South,9.2,-,N/A,,Mostly Cloudy,170,2013-01-14 01:30:00
7:55 PM,70.5,67.1,89,30.01,10.0,South,10.4,-,0.00,,Overcast,170,2013-01-14 01:55:00
8:12 PM,69.8,68.0,94,30.01,10.0,South,9.2,-,N/A,,Overcast,180,2013-01-14 02:12:00
8:14 PM,69.8,68.0,94,30.01,10.0,South,10.4,-,N/A,,Overcast,180,2013-01-14 02:14:00
8:48 PM,69.8,68.0,94,30.02,10.0,South,8.1,-,N/A,,Mostly Cloudy,180,2013-01-14 02:48:00
8:51 PM,69.8,68.0,94,30.02,10.0,South,6.9,-,N/A,Rain,Light Rain,190,2013-01-14 02:51:00
8:55 PM,70.2,67.3,91,30.02,10.0,South,5.8,-,0.00,Rain,Light Rain,180,2013-01-14 02:55:00
9:00 PM,69.8,68.0,94,30.02,10.0,South,6.9,-,N/A,,Light Drizzle,190,2013-01-14 03:00:00
9:04 PM,69.8,68.0,94,30.02,10.0,Variable,5.8,-,N/A,,Light Drizzle,0,2013-01-14 03:04:00
9:05 PM,69.8,68.0,94,30.02,10.0,Variable,5.8,-,N/A,,Overcast,0,2013-01-14 03:05:00
9:08 PM,69.8,68.0,94,30.02,10.0,SSW,4.6,-,N/A,,Overcast,200,2013-01-14 03:08:00
9:10 PM,69.8,68.0,94,30.02,10.0,Variable,4.6,-,N/A,,Overcast,0,2013-01-14 03:10:00
9:13 PM,69.8,68.0,94,30.02,10.0,South,6.9,-,N/A,,Overcast,180,2013-01-14 03:13:00
9:29 PM,69.8,66.2,88,30.03,10.0,South,8.1,-,N/A,,Mostly Cloudy,180,2013-01-14 03:29:00
9:33 PM,69.8,68.0,94,30.02,10.0,South,9.2,-,N/A,,Mostly Cloudy,170,2013-01-14 03:33:00
9:39 PM,69.8,68.0,94,30.02,10.0,South,9.2,-,N/A,,Overcast,170,2013-01-14 03:39:00
9:46 PM,69.8,68.0,94,30.02,10.0,South,10.4,-,N/A,,Light Drizzle,170,2013-01-14 03:46:00
9:55 PM,70.2,67.1,90,30.03,10.0,South,9.2,-,0.00,Rain,Light Rain,180,2013-01-14 03:55:00
9:58 PM,69.8,66.2,88,30.03,10.0,South,9.2,-,N/A,,Scattered Clouds,170,2013-01-14 03:58:00
10:19 PM,69.8,68.0,94,30.04,10.0,South,9.2,-,N/A,Rain,Light Rain,180,2013-01-14 04:19:00
10:55 PM,69.4,67.6,94,30.04,10.0,South,5.8,-,0.02,Rain,Light Rain,170,2013-01-14 04:55:00
11:55 PM,68.4,67.8,98,30.02,6.0,SSE,6.9,-,0.10,Rain,Rain,150,2013-01-14 05:55:00